sensor_id;sensor_type;location;lat;lon;timestamp;pressure;altitude;pressure_sealevel;temperature;humidity
68179;BME280;69812;42.632;23.440;2023-07-20T00:01:54;94782.75;;;20.15;60.36
68179;BME280;69812;42.632;23.440;2023-07-20T00:04:27;94796.78;;;20.07;61.16
68179;BME280;69812;42.632;23.440;2023-07-20T00:06:57;94788.56;;;20.10;60.21
68179;BME280;69812;42.632;23.440;2023-07-20T00:09:33;94802.41;;;20.10;60.78
68179;BME280;69812;42.632;23.440;2023-07-20T00:11:58;94809.19;;;20.18;60.64
68179;BME280;69812;42.632;23.440;2023-07-20T00:14:26;94807.38;;;20.25;59.25
68179;BME280;69812;42.632;23.440;2023-07-20T00:16:55;94796.78;;;20.00;60.74
68179;BME280;69812;42.632;23.440;2023-07-20T00:19:34;94792.09;;;19.69;62.06
68179;BME280;69812;42.632;23.440;2023-07-20T00:22:00;94797.88;;;19.58;62.91
68179;BME280;69812;42.632;23.440;2023-07-20T00:24:28;94788.91;;;19.67;62.63
68179;BME280;69812;42.632;23.440;2023-07-20T00:27:16;94774.63;;;19.49;62.80
68179;BME280;69812;42.632;23.440;2023-07-20T00:29:41;94756.59;;;19.28;62.95
68179;BME280;69812;42.632;23.440;2023-07-20T00:32:14;94765.66;;;19.52;61.77
68179;BME280;69812;42.632;23.440;2023-07-20T00:34:45;94774.63;;;19.43;61.68
68179;BME280;69812;42.632;23.440;2023-07-20T00:37:20;94767.69;;;19.70;62.03
68179;BME280;69812;42.632;23.440;2023-07-20T00:39:53;94760.84;;;19.56;62.94
68179;BME280;69812;42.632;23.440;2023-07-20T00:42:21;94767.59;;;19.30;65.14
68179;BME280;69812;42.632;23.440;2023-07-20T00:44:54;94765.78;;;19.24;66.76
68179;BME280;69812;42.632;23.440;2023-07-20T00:47:19;94780.63;;;18.88;69.63
68179;BME280;69812;42.632;23.440;2023-07-20T00:49:47;94778.56;;;18.77;71.54
68179;BME280;69812;42.632;23.440;2023-07-20T00:52:15;94766.69;;;18.61;71.96
68179;BME280;69812;42.632;23.440;2023-07-20T00:54:43;94770.19;;;18.47;72.68
68179;BME280;69812;42.632;23.440;2023-07-20T00:57:14;94784.97;;;18.46;73.25
68179;BME280;69812;42.632;23.440;2023-07-20T00:59:42;94765.63;;;18.21;74.79
68179;BME280;69812;42.632;23.440;2023-07-20T01:02:07;94767.59;;;17.91;75.77
68179;BME280;69812;42.632;23.440;2023-07-20T01:04:37;94783.16;;;17.91;75.94
68179;BME280;69812;42.632;23.440;2023-07-20T01:07:11;94763.22;;;17.70;75.36
68179;BME280;69812;42.632;23.440;2023-07-20T01:12:34;94779.53;;;17.63;75.99
68179;BME280;69812;42.632;23.440;2023-07-20T01:15:03;94783.53;;;17.66;76.32
68179;BME280;69812;42.632;23.440;2023-07-20T01:17:29;94784.72;;;17.63;76.56
68179;BME280;69812;42.632;23.440;2023-07-20T01:19:59;94785.06;;;17.60;76.96
68179;BME280;69812;42.632;23.440;2023-07-20T01:31:28;94785.75;;;17.91;75.25
68179;BME280;69812;42.632;23.440;2023-07-20T01:34:00;94776.59;;;17.73;76.34
68179;BME280;69812;42.632;23.440;2023-07-20T01:36:35;94769.44;;;17.54;77.66
68179;BME280;69812;42.632;23.440;2023-07-20T01:39:04;94778.63;;;17.56;77.80
68179;BME280;69812;42.632;23.440;2023-07-20T01:41:39;94782.09;;;17.42;78.69
68179;BME280;69812;42.632;23.440;2023-07-20T01:44:04;94778.84;;;17.55;78.06
68179;BME280;69812;42.632;23.440;2023-07-20T01:46:35;94775.50;;;17.39;77.91
68179;BME280;69812;42.632;23.440;2023-07-20T01:49:05;94786.09;;;17.44;78.45
68179;BME280;69812;42.632;23.440;2023-07-20T01:51:33;94788.09;;;17.42;78.12
68179;BME280;69812;42.632;23.440;2023-07-20T01:54:00;94778.03;;;17.33;78.47
68179;BME280;69812;42.632;23.440;2023-07-20T01:56:26;94780.34;;;17.28;79.44
68179;BME280;69812;42.632;23.440;2023-07-20T01:58:57;94777.22;;;17.17;79.71
68179;BME280;69812;42.632;23.440;2023-07-20T02:01:24;94779.81;;;17.17;80.03
68179;BME280;69812;42.632;23.440;2023-07-20T02:03:50;94771.78;;;17.12;79.72
68179;BME280;69812;42.632;23.440;2023-07-20T02:06:18;94773.94;;;17.09;80.10
68179;BME280;69812;42.632;23.440;2023-07-20T02:08:46;94748.31;;;16.99;80.12
68179;BME280;69812;42.632;23.440;2023-07-20T02:11:20;94742.13;;;17.00;79.94
68179;BME280;69812;42.632;23.440;2023-07-20T02:13:47;94770.94;;;17.05;80.29
68179;BME280;69812;42.632;23.440;2023-07-20T02:16:23;94767.44;;;16.98;80.27
68179;BME280;69812;42.632;23.440;2023-07-20T02:18:50;94762.63;;;16.95;79.98
68179;BME280;69812;42.632;23.440;2023-07-20T02:21:16;94768.59;;;16.95;80.17
68179;BME280;69812;42.632;23.440;2023-07-20T02:23:46;94757.72;;;16.85;80.81
68179;BME280;69812;42.632;23.440;2023-07-20T02:26:20;94767.56;;;16.90;80.37
68179;BME280;69812;42.632;23.440;2023-07-20T02:28:45;94773.88;;;16.87;80.40
68179;BME280;69812;42.632;23.440;2023-07-20T02:31:12;94762.53;;;16.73;80.71
68179;BME280;69812;42.632;23.440;2023-07-20T02:33:45;94777.09;;;16.89;80.46
68179;BME280;69812;42.632;23.440;2023-07-20T02:36:13;94770.69;;;16.85;80.87
68179;BME280;69812;42.632;23.440;2023-07-20T02:38:38;94759.75;;;16.75;80.87
68179;BME280;69812;42.632;23.440;2023-07-20T02:41:09;94774.63;;;16.81;81.15
68179;BME280;69812;42.632;23.440;2023-07-20T02:43:34;94762.19;;;16.76;81.27
68179;BME280;69812;42.632;23.440;2023-07-20T02:46:06;94760.72;;;16.74;81.72
68179;BME280;69812;42.632;23.440;2023-07-20T02:48:34;94751.38;;;16.58;82.10
68179;BME280;69812;42.632;23.440;2023-07-20T02:51:00;94740.84;;;16.45;82.41
68179;BME280;69812;42.632;23.440;2023-07-20T02:53:32;94749.66;;;16.50;82.64
68179;BME280;69812;42.632;23.440;2023-07-20T02:56:00;94719.50;;;16.28;83.14
68179;BME280;69812;42.632;23.440;2023-07-20T02:58:25;94745.03;;;16.46;83.15
68179;BME280;69812;42.632;23.440;2023-07-20T03:00:53;94743.25;;;16.46;83.18
68179;BME280;69812;42.632;23.440;2023-07-20T03:03:21;94731.44;;;16.43;82.65
68179;BME280;69812;42.632;23.440;2023-07-20T03:05:51;94732.19;;;16.37;81.72
68179;BME280;69812;42.632;23.440;2023-07-20T03:08:19;94733.88;;;16.45;81.36
68179;BME280;69812;42.632;23.440;2023-07-20T03:10:49;94739.66;;;16.47;81.40
68179;BME280;69812;42.632;23.440;2023-07-20T03:13:19;94737.97;;;16.54;81.66
68179;BME280;69812;42.632;23.440;2023-07-20T03:15:47;94757.97;;;16.75;81.47
68179;BME280;69812;42.632;23.440;2023-07-20T03:18:15;94744.31;;;16.81;81.02
68179;BME280;69812;42.632;23.440;2023-07-20T03:20:44;94760.19;;;16.93;80.85
68179;BME280;69812;42.632;23.440;2023-07-20T03:23:10;94761.34;;;17.06;80.66
68179;BME280;69812;42.632;23.440;2023-07-20T03:25:37;94770.63;;;17.15;80.28
68179;BME280;69812;42.632;23.440;2023-07-20T03:28:06;94756.13;;;17.20;79.61
68179;BME280;69812;42.632;23.440;2023-07-20T03:30:31;94771.66;;;17.35;79.95
68179;BME280;69812;42.632;23.440;2023-07-20T03:33:00;94779.31;;;17.43;79.68
68179;BME280;69812;42.632;23.440;2023-07-20T03:35:25;94776.66;;;17.58;79.79
68179;BME280;69812;42.632;23.440;2023-07-20T03:37:53;94770.50;;;17.81;78.66
68179;BME280;69812;42.632;23.440;2023-07-20T03:40:22;94755.00;;;17.88;77.65
68179;BME280;69812;42.632;23.440;2023-07-20T03:42:47;94769.13;;;18.06;76.73
68179;BME280;69812;42.632;23.440;2023-07-20T03:45:18;94761.22;;;18.21;75.85
68179;BME280;69812;42.632;23.440;2023-07-20T03:47:49;94765.03;;;18.54;74.82
68179;BME280;69812;42.632;23.440;2023-07-20T03:50:14;94764.41;;;18.80;73.76
68179;BME280;69812;42.632;23.440;2023-07-20T03:52:40;94777.94;;;19.17;72.38
68179;BME280;69812;42.632;23.440;2023-07-20T03:55:06;94762.44;;;19.43;71.64
68179;BME280;69812;42.632;23.440;2023-07-20T03:57:43;94785.53;;;20.33;68.33
68179;BME280;69812;42.632;23.440;2023-07-20T04:00:12;94784.59;;;21.12;64.47
68179;BME280;69812;42.632;23.440;2023-07-20T04:02:43;94783.44;;;21.79;61.73
68179;BME280;69812;42.632;23.440;2023-07-20T04:05:08;94790.06;;;22.56;59.18
68179;BME280;69812;42.632;23.440;2023-07-20T04:07:36;94781.16;;;23.20;57.53
68179;BME280;69812;42.632;23.440;2023-07-20T04:10:03;94795.19;;;24.28;56.12
68179;BME280;69812;42.632;23.440;2023-07-20T04:12:31;94787.50;;;25.20;53.34
68179;BME280;69812;42.632;23.440;2023-07-20T04:14:59;94783.91;;;26.13;50.07
68179;BME280;69812;42.632;23.440;2023-07-20T04:17:28;94782.13;;;26.69;46.15
68179;BME280;69812;42.632;23.440;2023-07-20T04:19:55;94767.88;;;27.26;45.39
68179;BME280;69812;42.632;23.440;2023-07-20T04:22:26;94774.34;;;28.27;42.37
68179;BME280;69812;42.632;23.440;2023-07-20T04:24:54;94768.22;;;29.06;40.63
68179;BME280;69812;42.632;23.440;2023-07-20T04:27:24;94772.97;;;29.83;40.00
68179;BME280;69812;42.632;23.440;2023-07-20T04:29:52;94765.06;;;30.49;38.02
68179;BME280;69812;42.632;23.440;2023-07-20T04:32:23;94769.13;;;31.12;36.50
68179;BME280;69812;42.632;23.440;2023-07-20T04:34:48;94758.13;;;31.44;35.27
68179;BME280;69812;42.632;23.440;2023-07-20T04:37:21;94752.53;;;32.30;34.33
68179;BME280;69812;42.632;23.440;2023-07-20T04:39:47;94762.72;;;32.47;33.55
68179;BME280;69812;42.632;23.440;2023-07-20T04:42:19;94758.34;;;32.85;32.49
68179;BME280;69812;42.632;23.440;2023-07-20T04:44:45;94751.91;;;33.78;32.00
68179;BME280;69812;42.632;23.440;2023-07-20T04:47:13;94746.09;;;33.75;31.08
68179;BME280;69812;42.632;23.440;2023-07-20T04:49:49;94748.22;;;34.44;30.58
68179;BME280;69812;42.632;23.440;2023-07-20T04:52:15;94746.88;;;34.88;30.03
68179;BME280;69812;42.632;23.440;2023-07-20T04:54:56;94740.75;;;35.02;29.37
68179;BME280;69812;42.632;23.440;2023-07-20T04:57:33;94751.88;;;36.04;28.15
68179;BME280;69812;42.632;23.440;2023-07-20T04:59:59;94742.94;;;36.54;27.16
68179;BME280;69812;42.632;23.440;2023-07-20T05:02:24;94756.13;;;37.30;25.79
68179;BME280;69812;42.632;23.440;2023-07-20T05:04:53;94747.97;;;37.35;25.62
68179;BME280;69812;42.632;23.440;2023-07-20T05:07:18;94751.00;;;38.21;24.43
68179;BME280;69812;42.632;23.440;2023-07-20T05:09:43;94754.97;;;38.71;23.66
68179;BME280;69812;42.632;23.440;2023-07-20T05:12:09;94744.91;;;38.68;24.12
68179;BME280;69812;42.632;23.440;2023-07-20T05:14:34;94753.19;;;39.22;23.11
68179;BME280;69812;42.632;23.440;2023-07-20T05:16:59;94738.44;;;39.58;21.88
68179;BME280;69812;42.632;23.440;2023-07-20T05:19:32;94747.53;;;40.08;21.29
68179;BME280;69812;42.632;23.440;2023-07-20T05:22:00;94747.00;;;40.60;21.57
68179;BME280;69812;42.632;23.440;2023-07-20T05:24:25;94742.13;;;40.87;21.09
68179;BME280;69812;42.632;23.440;2023-07-20T05:26:54;94741.25;;;40.37;21.27
68179;BME280;69812;42.632;23.440;2023-07-20T05:29:19;94736.13;;;40.69;21.21
68179;BME280;69812;42.632;23.440;2023-07-20T05:31:50;94746.38;;;40.88;21.15
68179;BME280;69812;42.632;23.440;2023-07-20T05:34:18;94752.19;;;41.51;20.66
68179;BME280;69812;42.632;23.440;2023-07-20T05:37:11;94749.31;;;41.84;19.96
68179;BME280;69812;42.632;23.440;2023-07-20T05:39:36;94732.28;;;41.68;19.79
68179;BME280;69812;42.632;23.440;2023-07-20T05:42:01;94749.19;;;41.40;20.18
68179;BME280;69812;42.632;23.440;2023-07-20T05:44:29;94745.75;;;42.09;19.42
68179;BME280;69812;42.632;23.440;2023-07-20T05:46:58;94751.88;;;42.37;19.48
68179;BME280;69812;42.632;23.440;2023-07-20T05:49:23;94761.09;;;43.12;18.68
68179;BME280;69812;42.632;23.440;2023-07-20T05:51:54;94752.97;;;43.28;18.47
68179;BME280;69812;42.632;23.440;2023-07-20T05:54:28;94767.03;;;43.53;18.41
68179;BME280;69812;42.632;23.440;2023-07-20T05:56:54;94769.72;;;43.88;17.45
68179;BME280;69812;42.632;23.440;2023-07-20T05:59:19;94765.75;;;43.47;17.62
68179;BME280;69812;42.632;23.440;2023-07-20T06:01:48;94774.84;;;43.23;18.70
68179;BME280;69812;42.632;23.440;2023-07-20T06:04:16;94762.81;;;43.91;17.46
68179;BME280;69812;42.632;23.440;2023-07-20T06:06:41;94758.72;;;44.59;17.21
68179;BME280;69812;42.632;23.440;2023-07-20T06:09:14;94750.03;;;44.50;16.09
68179;BME280;69812;42.632;23.440;2023-07-20T06:11:42;94740.41;;;43.71;16.73
68179;BME280;69812;42.632;23.440;2023-07-20T06:14:10;94753.91;;;44.95;16.29
68179;BME280;69812;42.632;23.440;2023-07-20T06:16:47;94749.84;;;45.62;16.25
68179;BME280;69812;42.632;23.440;2023-07-20T06:19:15;94738.50;;;45.53;15.82
68179;BME280;69812;42.632;23.440;2023-07-20T06:21:53;94753.81;;;45.15;16.04
68179;BME280;69812;42.632;23.440;2023-07-20T06:24:21;94747.03;;;45.85;16.04
68179;BME280;69812;42.632;23.440;2023-07-20T06:26:51;94740.38;;;46.09;15.33
68179;BME280;69812;42.632;23.440;2023-07-20T06:29:22;94736.72;;;46.31;15.11
68179;BME280;69812;42.632;23.440;2023-07-20T06:31:47;94732.50;;;46.38;15.04
68179;BME280;69812;42.632;23.440;2023-07-20T06:34:13;94716.97;;;47.24;14.91
68179;BME280;69812;42.632;23.440;2023-07-20T06:36:41;94711.34;;;47.61;14.32
68179;BME280;69812;42.632;23.440;2023-07-20T06:39:06;94718.53;;;47.28;14.59
68179;BME280;69812;42.632;23.440;2023-07-20T06:41:37;94731.75;;;48.32;13.80
68179;BME280;69812;42.632;23.440;2023-07-20T06:44:02;94724.78;;;49.35;13.65
68179;BME280;69812;42.632;23.440;2023-07-20T06:46:28;94716.72;;;50.09;12.82
68179;BME280;69812;42.632;23.440;2023-07-20T06:48:58;94710.91;;;50.00;12.29
68179;BME280;69812;42.632;23.440;2023-07-20T06:51:33;94723.78;;;51.07;12.27
68179;BME280;69812;42.632;23.440;2023-07-20T06:53:59;94726.34;;;50.84;11.73
68179;BME280;69812;42.632;23.440;2023-07-20T06:56:37;94723.47;;;49.83;12.33
68179;BME280;69812;42.632;23.440;2023-07-20T06:59:09;94722.38;;;50.92;12.31
68179;BME280;69812;42.632;23.440;2023-07-20T07:01:35;94722.59;;;49.97;12.55
68179;BME280;69812;42.632;23.440;2023-07-20T07:04:00;94724.09;;;50.12;12.60
68179;BME280;69812;42.632;23.440;2023-07-20T07:06:31;94735.19;;;50.99;11.70
68179;BME280;69812;42.632;23.440;2023-07-20T07:08:58;94740.94;;;52.18;11.38
68179;BME280;69812;42.632;23.440;2023-07-20T07:11:34;94748.63;;;52.27;10.55
68179;BME280;69812;42.632;23.440;2023-07-20T07:14:04;94751.41;;;50.01;12.17
68179;BME280;69812;42.632;23.440;2023-07-20T07:16:30;94749.16;;;49.85;12.33
68179;BME280;69812;42.632;23.440;2023-07-20T07:18:59;94757.38;;;47.36;14.20
68179;BME280;69812;42.632;23.440;2023-07-20T07:21:27;94751.16;;;44.06;16.50
68179;BME280;69812;42.632;23.440;2023-07-20T07:23:55;94761.00;;;41.76;18.87
68179;BME280;69812;42.632;23.440;2023-07-20T07:26:23;94766.13;;;39.71;21.49
68179;BME280;69812;42.632;23.440;2023-07-20T07:28:49;94777.94;;;37.90;23.84
68179;BME280;69812;42.632;23.440;2023-07-20T07:31:22;94782.75;;;41.83;19.74
68179;BME280;69812;42.632;23.440;2023-07-20T07:36:51;94792.84;;;48.45;13.51
68179;BME280;69812;42.632;23.440;2023-07-20T07:39:19;94793.59;;;48.49;13.67
68179;BME280;69812;42.632;23.440;2023-07-20T07:41:47;94781.88;;;48.20;13.96
68179;BME280;69812;42.632;23.440;2023-07-20T07:44:14;94771.50;;;48.87;12.90
68179;BME280;69812;42.632;23.440;2023-07-20T07:46:50;94769.56;;;50.37;12.57
68179;BME280;69812;42.632;23.440;2023-07-20T07:49:24;94760.13;;;51.04;11.50
68179;BME280;69812;42.632;23.440;2023-07-20T07:51:49;94763.88;;;51.97;10.77
68179;BME280;69812;42.632;23.440;2023-07-20T07:54:17;94778.38;;;51.94;10.63
68179;BME280;69812;42.632;23.440;2023-07-20T07:56:43;94758.34;;;50.24;11.88
68179;BME280;69812;42.632;23.440;2023-07-20T07:59:19;94723.34;;;50.08;12.00
68179;BME280;69812;42.632;23.440;2023-07-20T08:01:44;94706.88;;;49.30;12.28
68179;BME280;69812;42.632;23.440;2023-07-20T08:04:10;94720.34;;;49.81;12.04
68179;BME280;69812;42.632;23.440;2023-07-20T08:06:37;94729.78;;;50.43;11.49
68179;BME280;69812;42.632;23.440;2023-07-20T08:09:05;94725.22;;;50.81;11.52
68179;BME280;69812;42.632;23.440;2023-07-20T08:11:33;94725.34;;;51.12;11.38
68179;BME280;69812;42.632;23.440;2023-07-20T08:14:01;94736.22;;;50.74;11.49
68179;BME280;69812;42.632;23.440;2023-07-20T08:16:27;94749.28;;;51.39;11.00
68179;BME280;69812;42.632;23.440;2023-07-20T08:18:57;94752.41;;;51.37;11.69
68179;BME280;69812;42.632;23.440;2023-07-20T08:21:22;94759.63;;;50.68;11.76
68179;BME280;69812;42.632;23.440;2023-07-20T08:23:51;94760.16;;;48.56;13.69
68179;BME280;69812;42.632;23.440;2023-07-20T08:26:19;94772.06;;;47.94;13.95
68179;BME280;69812;42.632;23.440;2023-07-20T08:28:57;94746.66;;;45.56;15.75
68179;BME280;69812;42.632;23.440;2023-07-20T08:31:25;94767.59;;;41.38;20.62
68179;BME280;69812;42.632;23.440;2023-07-20T08:34:03;94759.19;;;43.64;17.85
68179;BME280;69812;42.632;23.440;2023-07-20T08:36:31;94761.78;;;42.61;18.77
68179;BME280;69812;42.632;23.440;2023-07-20T08:38:59;94740.09;;;40.25;21.46
68179;BME280;69812;42.632;23.440;2023-07-20T08:41:30;94740.84;;;36.42;26.68
68179;BME280;69812;42.632;23.440;2023-07-20T08:44:00;94738.66;;;35.12;29.19
68179;BME280;69812;42.632;23.440;2023-07-20T08:46:31;94740.66;;;34.65;29.99
68179;BME280;69812;42.632;23.440;2023-07-20T08:48:57;94736.13;;;35.21;30.20
68179;BME280;69812;42.632;23.440;2023-07-20T08:51:23;94740.28;;;36.09;28.33
68179;BME280;69812;42.632;23.440;2023-07-20T08:53:51;94741.50;;;36.79;27.16
68179;BME280;69812;42.632;23.440;2023-07-20T08:56:19;94752.44;;;35.56;27.40
68179;BME280;69812;42.632;23.440;2023-07-20T08:58:58;94750.06;;;32.39;32.31
68179;BME280;69812;42.632;23.440;2023-07-20T09:01:28;94748.53;;;30.94;34.04
68179;BME280;69812;42.632;23.440;2023-07-20T09:03:56;94756.53;;;30.68;33.30
68179;BME280;69812;42.632;23.440;2023-07-20T09:06:39;94738.25;;;30.71;34.05
68179;BME280;69812;42.632;23.440;2023-07-20T09:09:05;94739.88;;;30.57;34.08
68179;BME280;69812;42.632;23.440;2023-07-20T09:11:40;94738.34;;;30.30;34.51
68179;BME280;69812;42.632;23.440;2023-07-20T09:14:13;94738.06;;;30.22;34.60
68179;BME280;69812;42.632;23.440;2023-07-20T09:16:52;94745.47;;;30.40;34.40
68179;BME280;69812;42.632;23.440;2023-07-20T09:19:28;94731.97;;;30.21;35.12
68179;BME280;69812;42.632;23.440;2023-07-20T09:22:05;94735.91;;;30.55;34.45
68179;BME280;69812;42.632;23.440;2023-07-20T09:24:38;94714.25;;;30.01;34.35
68179;BME280;69812;42.632;23.440;2023-07-20T09:27:09;94726.94;;;29.99;34.51
68179;BME280;69812;42.632;23.440;2023-07-20T09:29:49;94718.19;;;30.14;34.17
68179;BME280;69812;42.632;23.440;2023-07-20T09:32:19;94709.47;;;30.19;34.29
68179;BME280;69812;42.632;23.440;2023-07-20T09:34:50;94719.00;;;30.09;33.27
68179;BME280;69812;42.632;23.440;2023-07-20T09:37:23;94717.94;;;30.26;33.26
68179;BME280;69812;42.632;23.440;2023-07-20T09:39:52;94724.28;;;30.45;32.94
68179;BME280;69812;42.632;23.440;2023-07-20T09:42:18;94724.25;;;30.61;33.07
68179;BME280;69812;42.632;23.440;2023-07-20T09:44:54;94735.66;;;30.46;30.78
68179;BME280;69812;42.632;23.440;2023-07-20T09:47:23;94713.19;;;30.43;32.02
68179;BME280;69812;42.632;23.440;2023-07-20T09:50:02;94710.16;;;30.81;30.25
68179;BME280;69812;42.632;23.440;2023-07-20T09:52:41;94726.34;;;30.69;31.80
68179;BME280;69812;42.632;23.440;2023-07-20T09:55:09;94722.03;;;30.94;30.57
68179;BME280;69812;42.632;23.440;2023-07-20T09:57:44;94714.50;;;31.16;30.65
68179;BME280;69812;42.632;23.440;2023-07-20T10:00:10;94705.09;;;30.84;31.87
68179;BME280;69812;42.632;23.440;2023-07-20T10:02:44;94700.56;;;31.50;30.81
68179;BME280;69812;42.632;23.440;2023-07-20T10:05:18;94686.31;;;32.39;28.87
68179;BME280;69812;42.632;23.440;2023-07-20T10:07:48;94667.13;;;33.33;27.15
68179;BME280;69812;42.632;23.440;2023-07-20T10:10:19;94680.19;;;34.33;24.52
68179;BME280;69812;42.632;23.440;2023-07-20T10:12:48;94680.44;;;35.42;23.82
68179;BME280;69812;42.632;23.440;2023-07-20T10:17:49;94684.25;;;35.86;22.36
68179;BME280;69812;42.632;23.440;2023-07-20T10:20:23;94687.28;;;36.56;22.49
68179;BME280;69812;42.632;23.440;2023-07-20T10:22:51;94680.44;;;36.64;21.22
68179;BME280;69812;42.632;23.440;2023-07-20T10:25:30;94687.88;;;36.44;22.26
68179;BME280;69812;42.632;23.440;2023-07-20T10:28:05;94682.38;;;35.64;22.41
68179;BME280;69812;42.632;23.440;2023-07-20T10:30:34;94680.63;;;36.36;22.29
68179;BME280;69812;42.632;23.440;2023-07-20T10:33:02;94707.16;;;37.12;22.66
68179;BME280;69812;42.632;23.440;2023-07-20T10:35:50;94707.19;;;37.30;21.62
68179;BME280;69812;42.632;23.440;2023-07-20T10:38:38;94705.69;;;36.57;22.86
68179;BME280;69812;42.632;23.440;2023-07-20T10:41:23;94682.66;;;36.39;22.71
68179;BME280;69812;42.632;23.440;2023-07-20T10:43:58;94677.41;;;35.94;23.27
68179;BME280;69812;42.632;23.440;2023-07-20T10:49:11;94683.78;;;35.48;23.64
68179;BME280;69812;42.632;23.440;2023-07-20T10:51:47;94679.91;;;35.04;23.49
68179;BME280;69812;42.632;23.440;2023-07-20T10:57:21;94636.13;;;34.27;23.64
68179;BME280;69812;42.632;23.440;2023-07-20T10:59:40;94608.69;;;34.82;23.33
68179;BME280;69812;42.632;23.440;2023-07-20T11:02:11;94629.63;;;34.74;23.44
68179;BME280;69812;42.632;23.440;2023-07-20T11:04:39;94659.41;;;34.49;24.15
68179;BME280;69812;42.632;23.440;2023-07-20T11:07:08;94644.41;;;34.53;23.50
68179;BME280;69812;42.632;23.440;2023-07-20T11:09:41;94633.16;;;34.56;23.33
68179;BME280;69812;42.632;23.440;2023-07-20T11:12:15;94614.16;;;35.13;22.77
68179;BME280;69812;42.632;23.440;2023-07-20T11:14:57;94618.31;;;35.05;22.68
68179;BME280;69812;42.632;23.440;2023-07-20T11:17:30;94620.81;;;34.88;23.31
68179;BME280;69812;42.632;23.440;2023-07-20T11:20:00;94620.81;;;34.88;22.85
68179;BME280;69812;42.632;23.440;2023-07-20T11:22:34;94616.38;;;34.42;23.80
68179;BME280;69812;42.632;23.440;2023-07-20T11:25:19;94617.88;;;34.34;23.46
68179;BME280;69812;42.632;23.440;2023-07-20T11:27:45;94628.59;;;34.56;24.12
68179;BME280;69812;42.632;23.440;2023-07-20T11:30:16;94620.66;;;34.70;23.65
68179;BME280;69812;42.632;23.440;2023-07-20T11:32:47;94600.47;;;34.92;23.41
68179;BME280;69812;42.632;23.440;2023-07-20T11:35:13;94609.41;;;34.96;24.20
68179;BME280;69812;42.632;23.440;2023-07-20T11:37:46;94614.16;;;35.13;23.88
68179;BME280;69812;42.632;23.440;2023-07-20T11:40:11;94600.88;;;35.22;24.40
68179;BME280;69812;42.632;23.440;2023-07-20T11:42:41;94603.69;;;35.03;24.75
68179;BME280;69812;42.632;23.440;2023-07-20T11:45:13;94591.16;;;34.89;25.30
68179;BME280;69812;42.632;23.440;2023-07-20T11:47:42;94592.16;;;34.93;25.96
68179;BME280;69812;42.632;23.440;2023-07-20T11:50:10;94583.31;;;34.56;25.34
68179;BME280;69812;42.632;23.440;2023-07-20T11:52:39;94578.97;;;34.05;26.71
68179;BME280;69812;42.632;23.440;2023-07-20T11:55:07;94573.72;;;33.21;27.50
68179;BME280;69812;42.632;23.440;2023-07-20T11:57:33;94569.59;;;32.52;29.26
68179;BME280;69812;42.632;23.440;2023-07-20T12:00:04;94576.50;;;32.53;29.41
68179;BME280;69812;42.632;23.440;2023-07-20T12:02:46;94557.72;;;32.45;30.14
68179;BME280;69812;42.632;23.440;2023-07-20T12:05:15;94568.53;;;32.53;29.50
68179;BME280;69812;42.632;23.440;2023-07-20T12:07:43;94558.19;;;32.28;29.94
68179;BME280;69812;42.632;23.440;2023-07-20T12:10:31;94536.00;;;31.36;31.00
68179;BME280;69812;42.632;23.440;2023-07-20T12:13:07;94552.41;;;31.43;31.75
68179;BME280;69812;42.632;23.440;2023-07-20T12:15:45;94546.78;;;31.50;31.06
68179;BME280;69812;42.632;23.440;2023-07-20T12:18:10;94522.25;;;31.29;31.15
68179;BME280;69812;42.632;23.440;2023-07-20T12:20:41;94547.66;;;31.69;30.52
68179;BME280;69812;42.632;23.440;2023-07-20T12:23:15;94543.22;;;31.60;30.94
68179;BME280;69812;42.632;23.440;2023-07-20T12:25:46;94535.31;;;31.55;31.18
68179;BME280;69812;42.632;23.440;2023-07-20T12:28:19;94531.38;;;31.52;30.95
68179;BME280;69812;42.632;23.440;2023-07-20T12:30:54;94534.91;;;31.37;30.24
68179;BME280;69812;42.632;23.440;2023-07-20T12:33:40;94529.94;;;31.65;30.50
68179;BME280;69812;42.632;23.440;2023-07-20T12:36:11;94533.03;;;31.96;30.65
68179;BME280;69812;42.632;23.440;2023-07-20T12:38:38;94516.41;;;31.90;30.14
68179;BME280;69812;42.632;23.440;2023-07-20T12:41:04;94509.84;;;31.83;29.88
68179;BME280;69812;42.632;23.440;2023-07-20T12:43:34;94519.03;;;31.66;29.14
68179;BME280;69812;42.632;23.440;2023-07-20T12:46:07;94520.16;;;31.60;29.64
68179;BME280;69812;42.632;23.440;2023-07-20T12:48:36;94525.16;;;31.62;27.99
68179;BME280;69812;42.632;23.440;2023-07-20T12:51:08;94501.13;;;31.53;28.80
68179;BME280;69812;42.632;23.440;2023-07-20T12:53:36;94505.88;;;31.56;27.98
68179;BME280;69812;42.632;23.440;2023-07-20T12:56:09;94506.34;;;31.63;28.83
68179;BME280;69812;42.632;23.440;2023-07-20T12:58:34;94502.13;;;31.62;28.71
68179;BME280;69812;42.632;23.440;2023-07-20T13:01:02;94509.50;;;31.65;28.33
68179;BME280;69812;42.632;23.440;2023-07-20T13:03:33;94505.28;;;31.64;26.99
68179;BME280;69812;42.632;23.440;2023-07-20T13:05:59;94510.69;;;31.78;27.54
68179;BME280;69812;42.632;23.440;2023-07-20T13:08:48;94513.19;;;31.93;26.24
68179;BME280;69812;42.632;23.440;2023-07-20T13:11:18;94515.63;;;32.14;26.43
68179;BME280;69812;42.632;23.440;2023-07-20T13:13:47;94502.97;;;32.06;26.53
68179;BME280;69812;42.632;23.440;2023-07-20T13:16:20;94503.84;;;32.20;27.53
68179;BME280;69812;42.632;23.440;2023-07-20T13:18:48;94509.16;;;32.20;26.83
68179;BME280;69812;42.632;23.440;2023-07-20T13:21:15;94517.44;;;32.19;26.88
68179;BME280;69812;42.632;23.440;2023-07-20T13:23:54;94508.72;;;32.13;27.67
68179;BME280;69812;42.632;23.440;2023-07-20T13:26:22;94507.09;;;32.17;27.68
68179;BME280;69812;42.632;23.440;2023-07-20T13:28:52;94494.50;;;32.04;27.88